sensor_id;sensor_type;location;lat;lon;timestamp;pressure;altitude;pressure_sealevel;temperature;humidity
76553;BME280;65395;53.168;18.156;2023-07-31T00:02:11;100384.77;;;17.29;73.32
76553;BME280;65395;53.168;18.156;2023-07-31T00:04:37;100384.80;;;17.24;73.47
76553;BME280;65395;53.168;18.156;2023-07-31T00:07:04;100387.02;;;17.20;73.53
76553;BME280;65395;53.168;18.156;2023-07-31T00:09:33;100389.27;;;17.16;73.75
76553;BME280;65395;53.168;18.156;2023-07-31T00:11:59;100390.75;;;17.15;73.85
76553;BME280;65395;53.168;18.156;2023-07-31T00:14:26;100387.16;;;17.14;73.75
76553;BME280;65395;53.168;18.156;2023-07-31T00:16:53;100392.11;;;17.15;73.89
76553;BME280;65395;53.168;18.156;2023-07-31T00:19:20;100392.63;;;17.14;73.98
76553;BME280;65395;53.168;18.156;2023-07-31T00:21:46;100382.38;;;17.13;74.07
76553;BME280;65395;53.168;18.156;2023-07-31T00:24:13;100384.20;;;17.13;74.07
76553;BME280;65395;53.168;18.156;2023-07-31T00:26:39;100386.15;;;17.12;74.25
76553;BME280;65395;53.168;18.156;2023-07-31T00:29:06;100391.60;;;17.11;74.05
76553;BME280;65395;53.168;18.156;2023-07-31T00:31:32;100392.89;;;17.10;74.02
76553;BME280;65395;53.168;18.156;2023-07-31T00:33:59;100387.61;;;17.09;74.08
76553;BME280;65395;53.168;18.156;2023-07-31T00:36:26;100385.80;;;17.08;73.98
76553;BME280;65395;53.168;18.156;2023-07-31T00:38:53;100384.77;;;17.06;74.19
76553;BME280;65395;53.168;18.156;2023-07-31T00:41:20;100386.61;;;17.04;74.23
76553;BME280;65395;53.168;18.156;2023-07-31T00:43:46;100386.98;;;17.03;74.30
76553;BME280;65395;53.168;18.156;2023-07-31T00:46:13;100393.18;;;17.03;74.30
76553;BME280;65395;53.168;18.156;2023-07-31T00:48:41;100394.33;;;17.03;74.22
76553;BME280;65395;53.168;18.156;2023-07-31T00:51:08;100399.77;;;17.04;74.44
76553;BME280;65395;53.168;18.156;2023-07-31T00:53:35;100402.14;;;17.04;74.34
76553;BME280;65395;53.168;18.156;2023-07-31T00:56:03;100398.17;;;17.04;74.46
76553;BME280;65395;53.168;18.156;2023-07-31T00:58:30;100400.21;;;17.04;74.38
76553;BME280;65395;53.168;18.156;2023-07-31T01:00:57;100404.09;;;17.04;74.63
76553;BME280;65395;53.168;18.156;2023-07-31T01:03:24;100400.66;;;17.03;74.78
76553;BME280;65395;53.168;18.156;2023-07-31T01:06:15;100403.22;;;17.02;75.06
76553;BME280;65395;53.168;18.156;2023-07-31T01:08:54;100400.27;;;16.98;75.32
76553;BME280;65395;53.168;18.156;2023-07-31T01:11:30;100402.67;;;16.93;75.65
76553;BME280;65395;53.168;18.156;2023-07-31T01:13:57;100404.92;;;16.86;75.84
76553;BME280;65395;53.168;18.156;2023-07-31T01:16:25;100411.90;;;16.81;76.25
76553;BME280;65395;53.168;18.156;2023-07-31T01:18:53;100406.33;;;16.76;76.28
76553;BME280;65395;53.168;18.156;2023-07-31T01:21:41;100408.26;;;16.72;76.48
76553;BME280;65395;53.168;18.156;2023-07-31T01:27:09;100416.02;;;16.61;76.87
76553;BME280;65395;53.168;18.156;2023-07-31T01:29:43;100413.89;;;16.56;77.04
76553;BME280;65395;53.168;18.156;2023-07-31T01:32:14;100413.23;;;16.48;77.28
76553;BME280;65395;53.168;18.156;2023-07-31T01:34:42;100414.30;;;16.40;77.72
76553;BME280;65395;53.168;18.156;2023-07-31T01:37:09;100412.10;;;16.31;77.75
76553;BME280;65395;53.168;18.156;2023-07-31T01:39:36;100414.27;;;16.22;78.18
76553;BME280;65395;53.168;18.156;2023-07-31T01:42:04;100409.54;;;16.12;78.19
76553;BME280;65395;53.168;18.156;2023-07-31T01:44:31;100408.42;;;16.04;78.50
76553;BME280;65395;53.168;18.156;2023-07-31T01:46:59;100409.33;;;15.95;78.61
76553;BME280;65395;53.168;18.156;2023-07-31T01:49:27;100405.33;;;15.87;78.89
76553;BME280;65395;53.168;18.156;2023-07-31T01:51:54;100401.55;;;15.82;79.23
76553;BME280;65395;53.168;18.156;2023-07-31T01:54:22;100399.92;;;15.77;79.20
76553;BME280;65395;53.168;18.156;2023-07-31T01:56:49;100401.29;;;15.72;79.20
76553;BME280;65395;53.168;18.156;2023-07-31T01:59:16;100407.52;;;15.68;79.23
76553;BME280;65395;53.168;18.156;2023-07-31T02:01:42;100406.11;;;15.63;79.58
76553;BME280;65395;53.168;18.156;2023-07-31T02:04:09;100408.54;;;15.59;79.59
76553;BME280;65395;53.168;18.156;2023-07-31T02:06:35;100406.17;;;15.55;79.52
76553;BME280;65395;53.168;18.156;2023-07-31T02:09:02;100405.79;;;15.51;79.73
76553;BME280;65395;53.168;18.156;2023-07-31T02:11:32;100406.36;;;15.46;79.82
76553;BME280;65395;53.168;18.156;2023-07-31T02:13:58;100408.73;;;15.41;79.76
76553;BME280;65395;53.168;18.156;2023-07-31T02:16:25;100409.46;;;15.36;80.01
76553;BME280;65395;53.168;18.156;2023-07-31T02:18:51;100403.14;;;15.31;80.11
76553;BME280;65395;53.168;18.156;2023-07-31T02:21:18;100406.88;;;15.28;80.43
76553;BME280;65395;53.168;18.156;2023-07-31T02:23:45;100413.52;;;15.23;80.42
76553;BME280;65395;53.168;18.156;2023-07-31T02:26:12;100416.10;;;15.19;80.44
76553;BME280;65395;53.168;18.156;2023-07-31T02:28:39;100408.48;;;15.15;80.55
76553;BME280;65395;53.168;18.156;2023-07-31T02:31:05;100411.31;;;15.09;80.69
76553;BME280;65395;53.168;18.156;2023-07-31T02:33:32;100414.84;;;15.04;80.86
76553;BME280;65395;53.168;18.156;2023-07-31T02:35:59;100409.92;;;14.99;80.96
76553;BME280;65395;53.168;18.156;2023-07-31T02:38:26;100412.17;;;14.95;81.17
76553;BME280;65395;53.168;18.156;2023-07-31T02:40:53;100412.25;;;14.91;81.77
76553;BME280;65395;53.168;18.156;2023-07-31T02:43:20;100420.47;;;14.88;81.85
76553;BME280;65395;53.168;18.156;2023-07-31T02:45:51;100420.20;;;14.85;81.57
76553;BME280;65395;53.168;18.156;2023-07-31T02:48:18;100423.09;;;14.82;81.92
76553;BME280;65395;53.168;18.156;2023-07-31T02:50:47;100424.47;;;14.78;82.15
76553;BME280;65395;53.168;18.156;2023-07-31T02:53:14;100426.27;;;14.76;82.77
76553;BME280;65395;53.168;18.156;2023-07-31T02:55:41;100425.44;;;14.74;82.41
76553;BME280;65395;53.168;18.156;2023-07-31T02:58:07;100417.23;;;14.70;82.49
76553;BME280;65395;53.168;18.156;2023-07-31T03:00:34;100420.04;;;14.68;82.58
76553;BME280;65395;53.168;18.156;2023-07-31T03:03:01;100426.42;;;14.67;82.56
76553;BME280;65395;53.168;18.156;2023-07-31T03:05:28;100425.14;;;14.65;83.12
76553;BME280;65395;53.168;18.156;2023-07-31T03:07:55;100419.08;;;14.64;82.99
76553;BME280;65395;53.168;18.156;2023-07-31T03:10:21;100416.77;;;14.65;82.68
76553;BME280;65395;53.168;18.156;2023-07-31T03:12:48;100418.75;;;14.64;82.85
76553;BME280;65395;53.168;18.156;2023-07-31T03:15:14;100418.22;;;14.66;82.85
76553;BME280;65395;53.168;18.156;2023-07-31T03:17:41;100415.52;;;14.67;82.87
76553;BME280;65395;53.168;18.156;2023-07-31T03:20:08;100418.67;;;14.68;82.69
76553;BME280;65395;53.168;18.156;2023-07-31T03:22:35;100422.96;;;14.71;83.09
76553;BME280;65395;53.168;18.156;2023-07-31T03:25:02;100428.87;;;14.73;83.08
76553;BME280;65395;53.168;18.156;2023-07-31T03:27:29;100435.16;;;14.74;83.20
76553;BME280;65395;53.168;18.156;2023-07-31T03:29:57;100436.06;;;14.76;82.93
76553;BME280;65395;53.168;18.156;2023-07-31T03:32:24;100435.88;;;14.77;82.86
76553;BME280;65395;53.168;18.156;2023-07-31T03:34:50;100439.83;;;14.78;82.98
76553;BME280;65395;53.168;18.156;2023-07-31T03:37:17;100439.98;;;14.78;82.83
76553;BME280;65395;53.168;18.156;2023-07-31T03:39:43;100437.92;;;14.77;82.70
76553;BME280;65395;53.168;18.156;2023-07-31T03:42:10;100441.09;;;14.78;82.72
76553;BME280;65395;53.168;18.156;2023-07-31T03:44:37;100446.52;;;14.80;83.03
76553;BME280;65395;53.168;18.156;2023-07-31T03:47:05;100444.39;;;14.81;82.72
76553;BME280;65395;53.168;18.156;2023-07-31T03:49:32;100443.59;;;14.83;82.83
76553;BME280;65395;53.168;18.156;2023-07-31T03:51:58;100449.59;;;14.84;82.82
76553;BME280;65395;53.168;18.156;2023-07-31T03:54:25;100449.31;;;14.87;82.69
76553;BME280;65395;53.168;18.156;2023-07-31T03:56:52;100448.05;;;14.89;82.60
76553;BME280;65395;53.168;18.156;2023-07-31T03:59:18;100446.46;;;14.91;82.54
76553;BME280;65395;53.168;18.156;2023-07-31T04:01:45;100448.58;;;14.95;82.34
76553;BME280;65395;53.168;18.156;2023-07-31T04:04:12;100450.41;;;14.99;82.28
76553;BME280;65395;53.168;18.156;2023-07-31T04:06:38;100453.23;;;15.05;82.20
76553;BME280;65395;53.168;18.156;2023-07-31T04:09:05;100456.95;;;15.10;82.02
76553;BME280;65395;53.168;18.156;2023-07-31T04:11:32;100460.70;;;15.17;81.94
76553;BME280;65395;53.168;18.156;2023-07-31T04:13:58;100454.36;;;15.23;81.83
76553;BME280;65395;53.168;18.156;2023-07-31T04:16:25;100450.02;;;15.29;81.51
76553;BME280;65395;53.168;18.156;2023-07-31T04:18:52;100450.47;;;15.33;81.27
76553;BME280;65395;53.168;18.156;2023-07-31T04:21:19;100448.16;;;15.36;81.00
76553;BME280;65395;53.168;18.156;2023-07-31T04:23:45;100446.95;;;15.38;80.75
76553;BME280;65395;53.168;18.156;2023-07-31T04:26:12;100445.77;;;15.37;80.64
76553;BME280;65395;53.168;18.156;2023-07-31T04:28:38;100446.86;;;15.36;80.43
76553;BME280;65395;53.168;18.156;2023-07-31T04:31:05;100445.73;;;15.34;80.29
76553;BME280;65395;53.168;18.156;2023-07-31T04:33:32;100440.67;;;15.32;80.12
76553;BME280;65395;53.168;18.156;2023-07-31T04:35:59;100438.98;;;15.30;80.08
76553;BME280;65395;53.168;18.156;2023-07-31T04:38:26;100439.64;;;15.28;79.99
76553;BME280;65395;53.168;18.156;2023-07-31T04:40:52;100439.98;;;15.27;79.92
76553;BME280;65395;53.168;18.156;2023-07-31T04:43:19;100438.77;;;15.27;79.91
76553;BME280;65395;53.168;18.156;2023-07-31T04:45:46;100442.93;;;15.28;79.90
76553;BME280;65395;53.168;18.156;2023-07-31T04:48:14;100443.91;;;15.30;79.77
76553;BME280;65395;53.168;18.156;2023-07-31T04:50:41;100445.80;;;15.34;79.84
76553;BME280;65395;53.168;18.156;2023-07-31T04:53:08;100445.52;;;15.40;79.69
76553;BME280;65395;53.168;18.156;2023-07-31T04:55:35;100447.14;;;15.46;79.65
76553;BME280;65395;53.168;18.156;2023-07-31T04:58:01;100447.86;;;15.53;79.39
76553;BME280;65395;53.168;18.156;2023-07-31T05:00:28;100449.56;;;15.62;79.32
76553;BME280;65395;53.168;18.156;2023-07-31T05:02:55;100454.02;;;15.73;78.79
76553;BME280;65395;53.168;18.156;2023-07-31T05:05:22;100452.97;;;15.86;78.55
76553;BME280;65395;53.168;18.156;2023-07-31T05:07:49;100454.38;;;15.97;77.89
76553;BME280;65395;53.168;18.156;2023-07-31T05:10:15;100454.17;;;16.07;77.28
76553;BME280;65395;53.168;18.156;2023-07-31T05:12:42;100456.41;;;16.16;77.51
76553;BME280;65395;53.168;18.156;2023-07-31T05:15:09;100458.59;;;16.24;76.71
76553;BME280;65395;53.168;18.156;2023-07-31T05:17:36;100460.30;;;16.29;76.10
76553;BME280;65395;53.168;18.156;2023-07-31T05:20:03;100458.96;;;16.35;75.11
76553;BME280;65395;53.168;18.156;2023-07-31T05:22:30;100459.67;;;16.39;74.99
76553;BME280;65395;53.168;18.156;2023-07-31T05:24:56;100460.64;;;16.43;75.10
76553;BME280;65395;53.168;18.156;2023-07-31T05:27:23;100461.55;;;16.50;75.41
76553;BME280;65395;53.168;18.156;2023-07-31T05:29:50;100459.90;;;16.54;75.16
76553;BME280;65395;53.168;18.156;2023-07-31T05:32:16;100463.77;;;16.56;74.94
76553;BME280;65395;53.168;18.156;2023-07-31T05:34:43;100468.69;;;16.55;74.51
76553;BME280;65395;53.168;18.156;2023-07-31T05:37:10;100469.04;;;16.54;74.28
76553;BME280;65395;53.168;18.156;2023-07-31T05:39:38;100460.89;;;16.54;74.25
76553;BME280;65395;53.168;18.156;2023-07-31T05:42:05;100459.90;;;16.54;74.20
76553;BME280;65395;53.168;18.156;2023-07-31T05:44:32;100457.38;;;16.56;74.48
76553;BME280;65395;53.168;18.156;2023-07-31T05:46:58;100454.73;;;16.59;74.20
76553;BME280;65395;53.168;18.156;2023-07-31T05:49:25;100454.68;;;16.62;73.98
76553;BME280;65395;53.168;18.156;2023-07-31T05:51:52;100456.23;;;16.64;73.12
76553;BME280;65395;53.168;18.156;2023-07-31T05:54:19;100451.96;;;16.67;73.57
76553;BME280;65395;53.168;18.156;2023-07-31T05:56:46;100448.18;;;16.72;73.33
76553;BME280;65395;53.168;18.156;2023-07-31T05:59:13;100447.90;;;16.77;72.96
76553;BME280;65395;53.168;18.156;2023-07-31T06:01:39;100449.09;;;16.83;72.69
76553;BME280;65395;53.168;18.156;2023-07-31T06:04:06;100448.73;;;16.91;72.90
76553;BME280;65395;53.168;18.156;2023-07-31T06:06:33;100445.66;;;17.00;73.00
76553;BME280;65395;53.168;18.156;2023-07-31T06:09:00;100452.13;;;17.11;72.92
76553;BME280;65395;53.168;18.156;2023-07-31T06:11:26;100461.71;;;17.23;72.49
76553;BME280;65395;53.168;18.156;2023-07-31T06:13:53;100463.31;;;17.33;72.12
76553;BME280;65395;53.168;18.156;2023-07-31T06:16:20;100468.35;;;17.41;71.62
76553;BME280;65395;53.168;18.156;2023-07-31T06:18:47;100463.88;;;17.46;71.18
76553;BME280;65395;53.168;18.156;2023-07-31T06:21:14;100459.30;;;17.50;71.24
76553;BME280;65395;53.168;18.156;2023-07-31T06:23:41;100459.75;;;17.55;71.25
76553;BME280;65395;53.168;18.156;2023-07-31T06:26:07;100461.45;;;17.59;71.01
76553;BME280;65395;53.168;18.156;2023-07-31T06:28:34;100464.69;;;17.63;70.75
76553;BME280;65395;53.168;18.156;2023-07-31T06:31:01;100469.39;;;17.65;70.08
76553;BME280;65395;53.168;18.156;2023-07-31T06:33:28;100464.88;;;17.66;70.72
76553;BME280;65395;53.168;18.156;2023-07-31T06:35:54;100464.84;;;17.70;70.68
76553;BME280;65395;53.168;18.156;2023-07-31T06:38:24;100462.87;;;17.76;70.14
76553;BME280;65395;53.168;18.156;2023-07-31T06:40:52;100466.16;;;17.81;69.65
76553;BME280;65395;53.168;18.156;2023-07-31T06:43:19;100467.72;;;17.88;68.45
76553;BME280;65395;53.168;18.156;2023-07-31T06:45:46;100465.58;;;17.95;68.76
76553;BME280;65395;53.168;18.156;2023-07-31T06:48:14;100463.29;;;18.06;68.29
76553;BME280;65395;53.168;18.156;2023-07-31T06:50:40;100458.80;;;18.20;68.46
76553;BME280;65395;53.168;18.156;2023-07-31T06:53:07;100462.09;;;18.38;67.56
76553;BME280;65395;53.168;18.156;2023-07-31T06:55:34;100468.08;;;18.52;66.43
76553;BME280;65395;53.168;18.156;2023-07-31T06:58:01;100466.71;;;18.64;66.43
76553;BME280;65395;53.168;18.156;2023-07-31T07:00:28;100463.62;;;18.77;66.36
76553;BME280;65395;53.168;18.156;2023-07-31T07:02:55;100466.91;;;18.90;65.75
76553;BME280;65395;53.168;18.156;2023-07-31T07:05:21;100467.23;;;19.03;65.63
76553;BME280;65395;53.168;18.156;2023-07-31T07:07:49;100463.30;;;19.11;65.64
76553;BME280;65395;53.168;18.156;2023-07-31T07:10:18;100471.89;;;19.29;64.93
76553;BME280;65395;53.168;18.156;2023-07-31T07:12:45;100466.07;;;19.41;64.96
76553;BME280;65395;53.168;18.156;2023-07-31T07:15:12;100464.33;;;19.54;64.87
76553;BME280;65395;53.168;18.156;2023-07-31T07:17:39;100463.12;;;19.69;64.27
76553;BME280;65395;53.168;18.156;2023-07-31T07:20:07;100464.30;;;19.85;63.74
76553;BME280;65395;53.168;18.156;2023-07-31T07:22:35;100472.02;;;19.97;63.44
76553;BME280;65395;53.168;18.156;2023-07-31T07:25:03;100472.36;;;20.06;63.26
76553;BME280;65395;53.168;18.156;2023-07-31T07:27:30;100471.40;;;20.11;62.37
76553;BME280;65395;53.168;18.156;2023-07-31T07:29:57;100469.79;;;20.15;61.13
76553;BME280;65395;53.168;18.156;2023-07-31T07:32:24;100474.25;;;20.16;61.62
76553;BME280;65395;53.168;18.156;2023-07-31T07:34:51;100475.41;;;20.23;61.85
76553;BME280;65395;53.168;18.156;2023-07-31T07:37:17;100478.09;;;20.35;61.29
76553;BME280;65395;53.168;18.156;2023-07-31T07:39:44;100475.92;;;20.46;61.30
76553;BME280;65395;53.168;18.156;2023-07-31T07:42:11;100477.33;;;20.61;60.92
76553;BME280;65395;53.168;18.156;2023-07-31T07:44:38;100477.80;;;20.75;60.55
76553;BME280;65395;53.168;18.156;2023-07-31T07:47:05;100476.08;;;20.86;59.66
76553;BME280;65395;53.168;18.156;2023-07-31T07:49:34;100477.30;;;20.94;60.02
76553;BME280;65395;53.168;18.156;2023-07-31T07:52:02;100475.25;;;21.08;59.91
76553;BME280;65395;53.168;18.156;2023-07-31T07:54:30;100471.52;;;21.18;59.08
76553;BME280;65395;53.168;18.156;2023-07-31T07:56:56;100467.08;;;21.24;59.18
76553;BME280;65395;53.168;18.156;2023-07-31T07:59:23;100469.95;;;21.32;59.62
76553;BME280;65395;53.168;18.156;2023-07-31T08:01:49;100472.40;;;21.37;59.29
76553;BME280;65395;53.168;18.156;2023-07-31T08:04:16;100472.54;;;21.42;58.75
76553;BME280;65395;53.168;18.156;2023-07-31T08:06:43;100472.06;;;21.46;58.55
76553;BME280;65395;53.168;18.156;2023-07-31T08:09:10;100473.48;;;21.49;58.23
76553;BME280;65395;53.168;18.156;2023-07-31T08:11:36;100470.96;;;21.49;57.64
76553;BME280;65395;53.168;18.156;2023-07-31T08:14:03;100468.02;;;21.48;57.36
76553;BME280;65395;53.168;18.156;2023-07-31T08:16:30;100473.21;;;21.45;57.29
76553;BME280;65395;53.168;18.156;2023-07-31T08:18:56;100468.23;;;21.40;57.28
76553;BME280;65395;53.168;18.156;2023-07-31T08:21:23;100473.11;;;21.38;57.34
76553;BME280;65395;53.168;18.156;2023-07-31T08:23:50;100471.49;;;21.38;57.05
76553;BME280;65395;53.168;18.156;2023-07-31T08:26:18;100467.48;;;21.42;57.05
76553;BME280;65395;53.168;18.156;2023-07-31T08:28:45;100470.27;;;21.49;56.82
76553;BME280;65395;53.168;18.156;2023-07-31T08:31:11;100469.91;;;21.51;55.75
76553;BME280;65395;53.168;18.156;2023-07-31T08:33:39;100469.73;;;21.50;55.81
76553;BME280;65395;53.168;18.156;2023-07-31T08:36:07;100462.73;;;21.47;55.35
76553;BME280;65395;53.168;18.156;2023-07-31T08:38:33;100463.08;;;21.50;55.35
76553;BME280;65395;53.168;18.156;2023-07-31T08:41:03;100459.73;;;21.57;55.61
76553;BME280;65395;53.168;18.156;2023-07-31T08:43:30;100460.52;;;21.65;55.08
76553;BME280;65395;53.168;18.156;2023-07-31T08:45:57;100455.65;;;21.67;54.76
76553;BME280;65395;53.168;18.156;2023-07-31T08:48:24;100452.86;;;21.70;54.12
76553;BME280;65395;53.168;18.156;2023-07-31T08:50:52;100453.83;;;21.74;54.19
76553;BME280;65395;53.168;18.156;2023-07-31T08:53:19;100452.98;;;21.81;54.14
76553;BME280;65395;53.168;18.156;2023-07-31T08:55:46;100449.65;;;21.87;54.26
76553;BME280;65395;53.168;18.156;2023-07-31T08:58:14;100446.14;;;22.01;53.92
76553;BME280;65395;53.168;18.156;2023-07-31T09:00:42;100443.52;;;22.21;53.36
76553;BME280;65395;53.168;18.156;2023-07-31T09:03:14;100447.42;;;22.42;52.87
76553;BME280;65395;53.168;18.156;2023-07-31T09:05:43;100450.03;;;22.51;51.85
76553;BME280;65395;53.168;18.156;2023-07-31T09:08:14;100447.56;;;22.49;52.31
76553;BME280;65395;53.168;18.156;2023-07-31T09:10:43;100446.70;;;22.53;51.75
76553;BME280;65395;53.168;18.156;2023-07-31T09:13:10;100449.37;;;22.53;51.55
76553;BME280;65395;53.168;18.156;2023-07-31T09:15:37;100440.20;;;22.48;51.15
76553;BME280;65395;53.168;18.156;2023-07-31T09:18:05;100440.52;;;22.51;51.04
76553;BME280;65395;53.168;18.156;2023-07-31T09:20:33;100439.47;;;22.53;51.17
76553;BME280;65395;53.168;18.156;2023-07-31T09:23:11;100432.43;;;22.62;51.61
76553;BME280;65395;53.168;18.156;2023-07-31T09:25:39;100433.82;;;22.72;51.20
76553;BME280;65395;53.168;18.156;2023-07-31T09:28:08;100428.79;;;22.75;50.87
76553;BME280;65395;53.168;18.156;2023-07-31T09:30:51;100425.21;;;22.79;51.08
76553;BME280;65395;53.168;18.156;2023-07-31T09:33:19;100422.61;;;22.90;51.08
76553;BME280;65395;53.168;18.156;2023-07-31T09:35:47;100420.06;;;22.99;51.06
76553;BME280;65395;53.168;18.156;2023-07-31T09:38:15;100417.60;;;23.10;51.12
76553;BME280;65395;53.168;18.156;2023-07-31T09:40:44;100417.17;;;23.15;50.72
76553;BME280;65395;53.168;18.156;2023-07-31T09:43:13;100412.09;;;23.12;51.04
76553;BME280;65395;53.168;18.156;2023-07-31T09:45:44;100409.86;;;23.01;50.97
76553;BME280;65395;53.168;18.156;2023-07-31T09:48:14;100407.70;;;22.89;51.13
76553;BME280;65395;53.168;18.156;2023-07-31T09:50:47;100404.07;;;22.87;50.85
76553;BME280;65395;53.168;18.156;2023-07-31T09:53:14;100403.67;;;22.83;50.84
76553;BME280;65395;53.168;18.156;2023-07-31T09:55:42;100398.57;;;22.78;51.25
76553;BME280;65395;53.168;18.156;2023-07-31T09:58:11;100395.19;;;22.69;51.20
76553;BME280;65395;53.168;18.156;2023-07-31T10:00:38;100391.36;;;22.54;51.28
76553;BME280;65395;53.168;18.156;2023-07-31T10:03:08;100383.36;;;22.36;51.83
76553;BME280;65395;53.168;18.156;2023-07-31T10:05:39;100389.96;;;22.21;52.13
76553;BME280;65395;53.168;18.156;2023-07-31T10:08:09;100405.37;;;21.98;53.16
76553;BME280;65395;53.168;18.156;2023-07-31T10:10:37;100412.05;;;21.63;55.25
76553;BME280;65395;53.168;18.156;2023-07-31T10:13:08;100408.70;;;21.25;56.88
76553;BME280;65395;53.168;18.156;2023-07-31T10:15:35;100415.43;;;20.94;58.14
76553;BME280;65395;53.168;18.156;2023-07-31T10:18:05;100424.16;;;20.72;58.77
76553;BME280;65395;53.168;18.156;2023-07-31T10:20:33;100419.66;;;20.49;59.72
76553;BME280;65395;53.168;18.156;2023-07-31T10:23:01;100413.46;;;20.32;60.52
76553;BME280;65395;53.168;18.156;2023-07-31T10:25:29;100399.96;;;20.25;61.11
76553;BME280;65395;53.168;18.156;2023-07-31T10:27:57;100384.02;;;20.27;62.06
76553;BME280;65395;53.168;18.156;2023-07-31T10:30:27;100381.16;;;20.35;61.61
76553;BME280;65395;53.168;18.156;2023-07-31T10:32:56;100387.42;;;20.43;62.21
76553;BME280;65395;53.168;18.156;2023-07-31T10:35:24;100382.95;;;20.55;62.28
76553;BME280;65395;53.168;18.156;2023-07-31T10:37:51;100378.42;;;20.64;61.76
76553;BME280;65395;53.168;18.156;2023-07-31T10:40:24;100372.40;;;20.74;61.87
76553;BME280;65395;53.168;18.156;2023-07-31T10:42:53;100368.70;;;20.88;61.96
76553;BME280;65395;53.168;18.156;2023-07-31T10:45:31;100364.37;;;21.09;62.06
76553;BME280;65395;53.168;18.156;2023-07-31T10:48:01;100364.85;;;21.33;61.66
76553;BME280;65395;53.168;18.156;2023-07-31T10:50:29;100360.53;;;21.56;61.73
76553;BME280;65395;53.168;18.156;2023-07-31T10:52:59;100355.88;;;21.76;61.53
76553;BME280;65395;53.168;18.156;2023-07-31T10:55:31;100348.95;;;22.00;61.22
76553;BME280;65395;53.168;18.156;2023-07-31T10:58:08;100345.16;;;22.29;60.72
76553;BME280;65395;53.168;18.156;2023-07-31T11:00:39;100344.18;;;22.68;60.39
76553;BME280;65395;53.168;18.156;2023-07-31T11:03:10;100343.30;;;22.96;59.77
76553;BME280;65395;53.168;18.156;2023-07-31T11:05:49;100339.82;;;23.18;59.60
76553;BME280;65395;53.168;18.156;2023-07-31T11:08:19;100333.48;;;23.28;59.03
76553;BME280;65395;53.168;18.156;2023-07-31T11:10:48;100332.70;;;23.24;58.36
76553;BME280;65395;53.168;18.156;2023-07-31T11:13:15;100330.24;;;23.09;58.58
76553;BME280;65395;53.168;18.156;2023-07-31T11:15:42;100325.34;;;22.98;58.62
76553;BME280;65395;53.168;18.156;2023-07-31T11:18:09;100324.52;;;22.87;58.73
76553;BME280;65395;53.168;18.156;2023-07-31T11:20:37;100324.68;;;22.78;58.78
76553;BME280;65395;53.168;18.156;2023-07-31T11:23:08;100319.45;;;22.65;59.01
76553;BME280;65395;53.168;18.156;2023-07-31T11:25:39;100319.28;;;22.47;58.96
76553;BME280;65395;53.168;18.156;2023-07-31T11:28:11;100318.72;;;22.25;59.17
76553;BME280;65395;53.168;18.156;2023-07-31T11:30:39;100316.09;;;22.04;59.35
76553;BME280;65395;53.168;18.156;2023-07-31T11:33:08;100320.73;;;21.86;59.56
76553;BME280;65395;53.168;18.156;2023-07-31T11:35:41;100322.75;;;21.63;58.22
76553;BME280;65395;53.168;18.156;2023-07-31T11:38:16;100325.18;;;21.35;57.85
76553;BME280;65395;53.168;18.156;2023-07-31T11:40:47;100324.72;;;21.05;57.60
76553;BME280;65395;53.168;18.156;2023-07-31T11:43:14;100325.60;;;20.83;57.87
76553;BME280;65395;53.168;18.156;2023-07-31T11:45:48;100327.54;;;20.64;58.53
76553;BME280;65395;53.168;18.156;2023-07-31T11:48:26;100330.86;;;20.51;58.93
76553;BME280;65395;53.168;18.156;2023-07-31T11:50:57;100325.87;;;20.45;59.54
76553;BME280;65395;53.168;18.156;2023-07-31T11:53:28;100329.98;;;20.44;59.65
76553;BME280;65395;53.168;18.156;2023-07-31T11:55:59;100328.34;;;20.46;59.54
76553;BME280;65395;53.168;18.156;2023-07-31T11:58:26;100324.48;;;20.54;59.58
76553;BME280;65395;53.168;18.156;2023-07-31T12:00:54;100321.80;;;20.64;59.75
76553;BME280;65395;53.168;18.156;2023-07-31T12:03:21;100322.70;;;20.78;59.70
76553;BME280;65395;53.168;18.156;2023-07-31T12:05:48;100320.39;;;20.92;59.57
76553;BME280;65395;53.168;18.156;2023-07-31T12:08:14;100318.44;;;21.01;59.35
76553;BME280;65395;53.168;18.156;2023-07-31T12:10:42;100322.83;;;21.12;59.75
76553;BME280;65395;53.168;18.156;2023-07-31T12:13:11;100325.27;;;21.29;59.60
76553;BME280;65395;53.168;18.156;2023-07-31T12:15:42;100318.94;;;21.44;59.43
76553;BME280;65395;53.168;18.156;2023-07-31T12:18:11;100317.00;;;21.49;59.27
76553;BME280;65395;53.168;18.156;2023-07-31T12:20:43;100314.07;;;21.53;59.29
76553;BME280;65395;53.168;18.156;2023-07-31T12:23:19;100315.48;;;21.64;59.29
76553;BME280;65395;53.168;18.156;2023-07-31T12:26:10;100303.78;;;21.79;59.13
76553;BME280;65395;53.168;18.156;2023-07-31T12:28:41;100303.58;;;21.95;58.79
76553;BME280;65395;53.168;18.156;2023-07-31T12:31:21;100296.02;;;22.07;58.57
76553;BME280;65395;53.168;18.156;2023-07-31T12:33:51;100303.27;;;22.11;57.60
76553;BME280;65395;53.168;18.156;2023-07-31T12:36:22;100301.12;;;22.12;57.06
76553;BME280;65395;53.168;18.156;2023-07-31T12:38:51;100296.69;;;22.14;57.38
76553;BME280;65395;53.168;18.156;2023-07-31T12:41:18;100298.77;;;22.16;57.20
76553;BME280;65395;53.168;18.156;2023-07-31T12:43:45;100295.12;;;22.10;57.52
76553;BME280;65395;53.168;18.156;2023-07-31T12:46:12;100296.16;;;22.07;57.18
76553;BME280;65395;53.168;18.156;2023-07-31T12:48:40;100292.83;;;21.95;56.94